Indianapolis, Indiana
Traffic Map
Current Weather Conditions
Indianapolis, Indiana
Overcast
Overcast
73°
Feels Like: 73°
Wind Chill: 73° Ceiling: 12000
Heat Index: 73° Visibility: 10mi
Dew Point: 68° Wind: 5mph
Humidity: 84% Direction: 170° (S)
Pressure: 30.01in Gusts: 0mph
Raw Report DataKIND 210354Z 17004KT 10SM BKN120 OVC160 23/20 A3001 RMK AO2 SLP156 T02280200 $
Traffic Incident Summary
Active as of:
Severity:
Category:
InformationThere was an issue retrieving the traffic information for this location. Please try a different location or try again shortly.
Advertisements
Track Severe Weather on mobile